KY4GW Weather Reports


Display with metric or nautical units.
time (UTC)temp
F
wind
direction
speed
MPH
gust
MPH
rain 1hr
in
rain 24hr
in
rain mn
in
humidity
%
barometer
mb
20210728180916 86 312 7.0 8.0 0.00 0.00 0.00 60 1022.8
20210728180409 86 345 3.0 3.0 0.00 0.00 0.00 59 1022.8
20210728175908 86 331 5.0 5.0 0.00 0.00 0.00 58 1022.8
20210728175407 86 39 4.0 4.0 0.00 0.00 0.00 59 1022.8
20210728174906 86 282 3.0 4.0 0.00 0.00 0.00 60 1022.8
20210728174404 85 252 5.0 5.0 0.00 0.00 0.00 57 1022.8
20210728173904 86 342 4.0 4.0 0.00 0.00 0.00 60 1022.8
20210728173404 85 300 2.0 2.0 0.00 0.00 0.00 62 1022.8
20210728172902 85 270 4.0 4.0 0.00 0.00 0.00 60 1022.8
20210728172401 85 348 4.0 4.0 0.00 0.00 0.00 60 1022.8
20210728171900 85 282 2.0 2.0 0.00 0.00 0.00 60 1022.8
20210728171359 85 318 3.0 3.0 0.00 0.00 0.00 60 1022.8
20210728170857 84 258 5.0 5.0 0.00 0.00 0.00 60 1022.8
20210728170410 85 0 0.0 0.0 0.00 0.00 0.00 60 1022.8
20210728165854 84 46 0.0 0.0 0.00 0.00 0.00 62 1023.1
20210728165353 85 276 4.0 4.0 0.00 0.00 0.00 61 1023.1
20210728164850 84 36 2.0 2.0 0.00 0.00 0.00 62 1023.1
20210728164349 84 324 4.0 4.0 0.00 0.00 0.00 62 1022.8
20210728163847 84 348 0.0 0.0 0.00 0.00 0.00 64 1022.8
20210728163343 83 258 2.0 2.0 0.00 0.00 0.00 63 1022.8
20210728162836 84 288 4.0 4.0 0.00 0.00 0.00 62 1022.4
20210728162334 83 304 3.0 3.0 0.00 0.00 0.00 63 1022.4
20210728161834 84 270 2.0 2.0 0.00 0.00 0.00 63 1022.4
20210728161333 84 264 2.0 2.0 0.00 0.00 0.00 60 1022.4
20210728160830 84 123 0.0 0.0 0.00 0.00 0.00 61 1022.4
20210728160329 85 112 3.0 3.0 0.00 0.00 0.00 64 1022.8
20210728155824 85 318 0.0 0.0 0.00 0.00 0.00 61 1022.8
20210728155324 85 120 2.0 2.0 0.00 0.00 0.00 60 1022.8
20210728154824 83 270 2.0 2.0 0.00 0.00 0.00 61 1022.8
20210728154321 82 125 2.0 2.0 0.00 0.00 0.00 62 1022.8
20210728153820 83 252 2.0 2.0 0.00 0.00 0.00 63 1022.8
20210728153318 83 342 3.0 4.0 0.00 0.00 0.00 64 1022.8
20210728152815 82 90 0.0 0.0 0.00 0.00 0.00 65 1022.8
20210728152315 82 282 2.0 2.0 0.00 0.00 0.00 64 1022.8
20210728151814 81 288 2.0 2.0 0.00 0.00 0.00 67 1022.8
20210728151313 81 30 0.0 0.0 0.00 0.00 0.00 68 1022.8
20210728150811 82 96 0.0 0.0 0.00 0.00 0.00 65 1022.8
20210728150311 82 6 2.0 2.0 0.00 0.00 0.00 68 1022.8
20210728145808 82 100 0.0 0.0 0.00 0.00 0.00 66 1022.8
20210728145305 81 90 2.0 2.0 0.00 0.00 0.00 68 1022.8
20210728144803 81 282 0.0 0.0 0.00 0.00 0.00 67 1022.8
20210728144301 81 96 0.0 0.0 0.00 0.00 0.00 66 1022.8
20210728143800 81 54 0.0 0.0 0.00 0.00 0.00 68 1022.8
20210728143256 80 42 0.0 0.0 0.00 0.00 0.00 67 1022.8
20210728142756 80 288 1.0 1.0 0.00 0.00 0.00 66 1023.1
20210728142254 79 349 0.0 0.0 0.00 0.00 0.00 68 1023.1
20210728141752 79 30 0.0 0.0 0.00 0.00 0.00 68 1023.1
20210728141252 79 318 3.0 3.0 0.00 0.00 0.00 72 1023.5
20210728140751 79 12 0.0 0.0 0.00 0.00 0.00 73 1023.5
20210728140248 80 336 0.0 0.0 0.00 0.00 0.00 73 1023.5
20210728135748 79 36 2.0 2.0 0.00 0.00 0.00 75 1023.5
20210728135247 78 13 0.0 0.0 0.00 0.00 0.00 76 1023.5
20210728134800 78 95 0.0 0.0 0.00 0.00 0.00 75 1023.5
20210728134245 77 96 3.0 3.0 0.00 0.00 0.00 78 1022.8
20210728133757 77 107 2.0 2.0 0.00 0.00 0.00 78 1022.8
20210728133242 76 126 0.0 0.0 0.00 0.00 0.00 77 1022.8
20210728132739 75 186 1.0 1.0 0.00 0.00 0.00 80 1023.1
20210728132237 75 131 3.0 3.0 0.00 0.00 0.00 81 1023.1
20210728131746 75 102 2.0 2.0 0.00 0.00 0.00 84 1023.1
20210728131232 75 132 2.0 2.0 0.00 0.00 0.00 81 1023.1
20210728130733 76 124 0.0 0.0 0.00 0.00 0.00 81 1023.1
20210728091428 63 287 0.0 0.0 0.00 0.00 0.00 99 1022.4
20210728090925 63 287 0.0 0.0 0.00 0.00 0.00 99 1022.4
20210728090423 63 287 0.0 0.0 0.00 0.00 0.00 99 1022.4
20210728085923 64 287 0.0 0.0 0.00 0.00 0.00 99 1022.4
20210728085421 64 287 0.0 0.0 0.00 0.00 0.00 99 1022.4
20210728084920 64 287 0.0 0.0 0.00 0.00 0.00 99 1022.4
20210728084419 64 287 0.0 0.0 0.00 0.00 0.00 99 1022.1
20210728083918 64 287 0.0 0.0 0.00 0.00 0.00 99 1022.1
20210728083417 64 287 0.0 0.0 0.00 0.00 0.00 99 1022.1
20210728082915 64 287 0.0 0.0 0.00 0.00 0.00 99 1022.4
20210728082414 64 287 0.0 0.0 0.00 0.00 0.00 99 1022.4
20210728081914 64 287 0.0 0.0 0.00 0.00 0.00 99 1022.4
20210728081408 64 287 0.0 0.0 0.00 0.00 0.00 99 1022.1
20210728080908 64 287 0.0 0.0 0.00 0.00 0.00 99 1022.1
20210728080408 64 284 0.0 0.0 0.00 0.00 0.00 99 1022.1
20210728075908 64 76 0.0 0.0 0.00 0.00 0.00 99 1022.1
20210728075406 64 31 0.0 0.0 0.00 0.00 0.00 99 1022.1
20210728074905 64 300 0.0 0.0 0.00 0.00 0.00 99 1022.1
20210728074404 65 295 0.0 0.0 0.00 0.00 0.00 99 1022.1
20210728073902 64 295 0.0 0.0 0.00 0.00 0.00 99 1022.1
20210728073402 64 295 0.0 0.0 0.00 0.00 0.00 99 1022.1
20210728072901 65 295 0.0 0.0 0.00 0.00 0.00 99 1022.1
20210728072400 65 289 0.0 0.0 0.00 0.00 0.00 99 1022.1
20210728071858 65 330 0.0 0.0 0.00 0.00 0.00 99 1022.1
20210728071356 65 330 0.0 0.0 0.00 0.00 0.00 99 1022.1
20210728070856 65 306 0.0 0.0 0.00 0.00 0.00 99 1022.1
20210728070354 65 288 0.0 0.0 0.00 0.00 0.00 99 1022.1
20210728065853 65 300 0.0 0.0 0.00 0.00 0.00 99 1021.8
20210728065353 65 119 0.0 0.0 0.00 0.00 0.00 99 1021.8
20210728064850 65 119 0.0 0.0 0.00 0.00 0.00 99 1021.8
20210728064344 65 119 0.0 0.0 0.00 0.00 0.00 99 1021.8
20210728063838 65 120 0.0 0.0 0.00 0.00 0.00 99 1021.8
20210728063337 65 119 0.0 0.0 0.00 0.00 0.00 98 1021.8
20210728062834 66 36 0.0 0.0 0.00 0.00 0.00 98 1021.8
20210728062333 66 11 0.0 0.0 0.00 0.00 0.00 98 1021.8
20210728061829 66 342 0.0 0.0 0.00 0.00 0.00 98 1021.8
20210728061328 66 342 0.0 0.0 0.00 0.00 0.00 98 1022.1
20210728060826 66 44 0.0 0.0 0.00 0.00 0.00 98 1022.1
20210728060325 67 347 0.0 0.0 0.00 0.00 0.00 98 1022.1
20210728055822 67 306 0.0 0.0 0.00 0.00 0.00 98 1021.8
20210728055319 66 4 0.0 0.0 0.00 0.00 0.00 98 1021.8
20210728054817 67 305 0.0 0.0 0.00 0.00 0.00 97 1021.8
20210728054316 66 324 0.0 0.0 0.00 0.00 0.00 98 1021.8
20210728053813 67 295 0.0 0.0 0.00 0.00 0.00 97 1021.8
20210728053301 67 156 0.0 0.0 0.00 0.00 0.00 98 1021.8
20210728052800 67 156 0.0 0.0 0.00 0.00 0.00 98 1022.1
20210728052259 67 139 0.0 0.0 0.00 0.00 0.00 98 1022.1
20210728051757 67 48 0.0 0.0 0.00 0.00 0.00 97 1022.1
20210728051256 67 48 0.0 0.0 0.00 0.00 0.00 97 1021.8
20210728050755 67 48 0.0 0.0 0.00 0.00 0.00 97 1021.8
20210728050253 67 48 0.0 0.0 0.00 0.00 0.00 97 1021.8
20210728045751 67 40 0.0 0.0 0.00 0.00 0.00 96 1022.1
20210728045250 67 318 0.0 0.0 0.00 0.00 0.00 96 1022.1
20210728044749 67 324 0.0 0.0 0.00 0.00 0.00 97 1022.1
20210728044249 67 324 0.0 0.0 0.00 0.00 0.00 96 1021.4
20210728043746 68 320 0.0 0.0 0.00 0.00 0.00 96 1021.4
20210728043245 68 320 0.0 0.0 0.00 0.00 0.00 96 1021.4
20210728042744 68 329 0.0 0.0 0.00 0.00 0.00 96 1021.8
20210728042245 68 17 0.0 0.0 0.00 0.00 0.00 96 1021.8
20210728041744 68 23 0.0 0.0 0.00 0.00 0.00 95 1021.8
20210728041244 68 1 0.0 0.0 0.00 0.00 0.00 95 1021.8
20210728040744 68 350 0.0 0.0 0.00 0.00 0.00 95 1021.8
20210728040242 69 36 0.0 0.0 0.00 0.00 0.00 94 1021.8
20210728035742 69 19 0.0 0.0 0.00 0.00 0.00 94 1021.4
20210728035240 69 82 0.0 0.0 0.00 0.00 0.00 94 1021.4
20210728034739 69 310 0.0 0.0 0.00 0.00 0.00 93 1021.4
20210728034238 69 310 0.0 0.0 0.00 0.00 0.00 93 1021.8
20210728033737 70 294 0.0 0.0 0.00 0.00 0.00 93 1021.8
20210728033237 70 18 0.0 0.0 0.00 0.00 0.00 93 1021.8
20210728032736 70 18 0.0 0.0 0.00 0.00 0.00 92 1021.8
20210728032234 70 348 0.0 0.0 0.00 0.00 0.00 92 1021.8
20210728031732 70 313 0.0 0.0 0.00 0.00 0.00 91 1021.8
20210728031231 71 313 0.0 0.0 0.00 0.00 0.00 91 1021.4
20210728030730 71 313 0.0 0.0 0.00 0.00 0.00 90 1021.4
20210728030228 71 313 0.0 0.0 0.00 0.00 0.00 89 1021.4
20210728025726 71 316 0.0 0.0 0.00 0.00 0.00 89 1021.8
20210728025225 71 342 0.0 0.0 0.00 0.00 0.00 88 1021.8
20210728024724 71 240 0.0 0.0 0.00 0.00 0.00 88 1021.8
20210728024224 71 204 0.0 0.0 0.00 0.00 0.00 88 1021.4
20210728023724 71 211 0.0 0.0 0.00 0.00 0.00 87 1021.4
20210728023223 71 156 0.0 0.0 0.00 0.00 0.00 88 1021.4
20210728022722 72 156 0.0 0.0 0.00 0.00 0.00 87 1021.1
20210728022220 72 156 0.0 0.0 0.00 0.00 0.00 87 1021.1
20210728021720 72 154 0.0 0.0 0.00 0.00 0.00 87 1021.1
20210728021219 72 131 0.0 0.0 0.00 0.00 0.00 85 1021.1
20210728020717 72 131 0.0 0.0 0.00 0.00 0.00 85 1021.1
20210728020216 73 131 0.0 0.0 0.00 0.00 0.00 84 1021.1
20210728015712 73 132 0.0 0.0 0.00 0.00 0.00 84 1021.1
20210728015211 73 49 0.0 0.0 0.00 0.00 0.00 83 1021.1
20210728014710 73 49 0.0 0.0 0.00 0.00 0.00 82 1021.1
20210728014208 73 48 0.0 0.0 0.00 0.00 0.00 81 1021.1
20210728013704 74 48 0.0 0.0 0.00 0.00 0.00 83 1021.1
20210728013202 74 48 0.0 0.0 0.00 0.00 0.00 82 1021.1
20210728012701 74 48 0.0 0.0 0.00 0.00 0.00 80 1021.1
20210728012158 75 72 0.0 0.0 0.00 0.00 0.00 80 1021.1
20210728011658 75 72 0.0 0.0 0.00 0.00 0.00 81 1021.1
20210728011157 76 72 0.0 0.0 0.00 0.00 0.00 80 1020.7
20210728010655 76 72 0.0 0.0 0.00 0.00 0.00 77 1020.7
20210728010154 77 72 0.0 0.0 0.00 0.00 0.00 77 1020.7
20210728005652 77 102 0.0 0.0 0.00 0.00 0.00 74 1021.1
20210728005150 78 84 0.0 0.0 0.00 0.00 0.00 75 1021.1
20210728004648 78 47 0.0 0.0 0.00 0.00 0.00 73 1021.1
20210728004144 79 47 0.0 0.0 0.00 0.00 0.00 72 1020.4
20210728003643 79 47 0.0 0.0 0.00 0.00 0.00 71 1020.4
20210728003140 79 47 0.0 0.0 0.00 0.00 0.00 72 1020.4
20210728002640 80 12 0.0 0.0 0.00 0.00 0.00 71 1020.7
20210728002139 81 46 0.0 0.0 0.00 0.00 0.00 71 1020.7
20210728001638 82 47 0.0 0.0 0.00 0.00 0.00 70 1020.7
20210728001136 83 48 0.0 0.0 0.00 0.00 0.00 65 1020.7
20210728000635 83 48 0.0 0.0 0.00 0.00 0.00 64 1020.7
20210728000134 84 30 0.0 0.0 0.00 0.00 0.00 63 1020.7
20210727235632 84 6 0.0 0.0 0.00 0.00 0.00 61 1020.4
20210727235132 84 18 0.0 0.0 0.00 0.00 0.00 60 1020.4
20210727234631 84 33 0.0 0.0 0.00 0.00 0.00 60 1020.4
20210727234128 84 36 0.0 0.0 0.00 0.00 0.00 61 1020.4
20210727233626 84 72 0.0 0.0 0.00 0.00 0.00 63 1020.4
20210727233122 84 72 0.0 0.0 0.00 0.00 0.00 65 1020.4
20210727232620 84 72 0.0 0.0 0.00 0.00 0.00 66 1020.4
20210727232119 84 72 0.0 0.0 0.00 0.00 0.00 64 1020.4
20210727231618 85 53 0.0 0.0 0.00 0.00 0.00 62 1020.4
20210727231115 85 48 0.0 0.0 0.00 0.00 0.00 60 1020.4
20210727230615 86 48 0.0 0.0 0.00 0.00 0.00 60 1020.4
20210727230116 86 42 0.0 0.0 0.00 0.00 0.00 56 1020.4
20210727225611 86 42 0.0 0.0 0.00 0.00 0.00 54 1020.4
20210727225107 86 42 0.0 0.0 0.00 0.00 0.00 54 1020.4
20210727224606 86 48 0.0 0.0 0.00 0.00 0.00 51 1020.4
20210727224105 86 72 0.0 0.0 0.00 0.00 0.00 53 1020.4
20210727223605 86 48 0.0 0.0 0.00 0.00 0.00 50 1020.4
20210727223103 86 84 1.0 1.0 0.00 0.00 0.00 52 1020.7
20210727222600 86 61 3.0 3.0 0.00 0.00 0.00 54 1020.7
20210727222059 86 18 0.0 0.0 0.00 0.00 0.00 52 1020.7
20210727221558 86 72 0.0 0.0 0.00 0.00 0.00 50 1020.7
20210727221058 86 18 1.0 1.0 0.00 0.00 0.00 51 1020.7
20210727220554 86 42 0.0 0.0 0.00 0.00 0.00 51 1020.7
20210727220053 86 36 1.0 1.0 0.00 0.00 0.00 53 1020.7
20210727215552 87 72 0.0 0.0 0.00 0.00 0.00 53 1020.7
20210727215052 87 294 3.0 3.0 0.00 0.00 0.00 47 1020.7
20210727214550 87 342 2.0 2.0 0.00 0.00 0.00 47 1020.7
20210727214048 87 258 0.0 0.0 0.00 0.00 0.00 51 1020.7
20210727213547 86 90 0.0 0.0 0.00 0.00 0.00 51 1020.7
20210727213046 86 80 0.0 0.0 0.00 0.00 0.00 49 1021.1
20210727212546 87 47 0.0 0.0 0.00 0.00 0.00 55 1021.1
20210727212045 87 42 2.0 2.0 0.00 0.00 0.00 49 1021.1
20210727211541 86 78 2.0 2.0 0.00 0.00 0.00 52 1020.7
20210727211039 86 54 2.0 2.0 0.00 0.00 0.00 50 1020.7
20210727210537 87 42 0.0 0.0 0.00 0.00 0.00 51 1020.7
20210727210036 87 306 1.0 1.0 0.00 0.00 0.00 50 1020.7
20210727205534 86 18 3.0 3.0 0.00 0.00 0.00 51 1021.1
20210727205032 87 12 2.0 2.0 0.00 0.00 0.00 51 1021.1
20210727204530 86 84 2.0 2.0 0.00 0.00 0.00 49 1021.1
20210727204028 87 78 0.0 0.0 0.00 0.00 0.00 48 1021.1
20210727203527 87 36 0.0 0.0 0.00 0.00 0.00 49 1021.1
20210727203024 86 42 0.0 0.0 0.00 0.00 0.00 49 1021.1
20210727202524 87 78 3.0 3.0 0.00 0.00 0.00 49 1021.1
20210727202021 87 102 2.0 2.0 0.00 0.00 0.00 49 1021.1
20210727201522 87 42 1.0 1.0 0.00 0.00 0.00 50 1021.1
20210727201019 87 67 2.0 2.0 0.00 0.00 0.00 49 1021.1
20210727200519 86 120 4.0 4.0 0.00 0.00 0.00 47 1021.1
20210727200018 87 102 0.0 0.0 0.00 0.00 0.00 48 1021.1
20210727195516 86 48 0.0 0.0 0.00 0.00 0.00 50 1021.1
20210727195014 87 96 3.0 3.0 0.00 0.00 0.00 51 1021.1
20210727194514 87 114 1.0 1.0 0.00 0.00 0.00 51 1021.8
20210727194013 87 246 2.0 2.0 0.00 0.00 0.00 47 1021.8
20210727193509 87 317 2.0 2.0 0.00 0.00 0.00 49 1021.8
20210727193010 86 354 0.0 0.0 0.00 0.00 0.00 48 1021.8
20210727192508 86 40 2.0 2.0 0.00 0.00 0.00 52 1021.8
20210727192006 87 336 3.0 3.0 0.00 0.00 0.00 49 1021.8
20210727191504 87 6 5.0 5.0 0.00 0.00 0.00 51 1021.8
20210727191007 86 96 0.0 0.0 0.00 0.00 0.00 51 1021.8
20210727190502 87 288 0.0 0.0 0.00 0.00 0.00 52 1021.8
20210727185958 87 90 2.0 2.0 0.00 0.00 0.00 50 1022.1
20210727185458 86 323 2.0 2.0 0.00 0.00 0.00 50 1022.1
20210727184956 87 54 0.0 0.0 0.00 0.00 0.00 52 1022.1
20210727184455 87 102 2.0 2.0 0.00 0.00 0.00 49 1022.1
20210727183954 87 46 0.0 0.0 0.00 0.00 0.00 49 1022.1
20210727183451 87 48 2.0 2.0 0.00 0.00 0.00 52 1022.1
20210727182951 87 6 3.0 3.0 0.00 0.00 0.00 50 1022.1
20210727182448 87 318 2.0 2.0 0.00 0.00 0.00 51 1022.1
20210727181946 87 336 2.0 2.0 0.00 0.00 0.00 49 1022.1
20210727181445 87 222 4.0 4.0 0.00 0.00 0.00 46 1022.1